Terminal Aerodrome Forecast
Issued by NWS

Home | Current Version | Previous Version | Text Only | Print | Product List | Glossary On
Versions: 1 2 3 4 5 6 7 8 9 10 11 12 13 14 15 16 17 18 19
000
FTUS42 KGSP 062337
TAFAND
TAF
KAND 062337Z 0700/0724 20005KT P6SM BKN250
     FM070900 00000KT P6SM SCT250
     FM071100 00000KT 5SM BR FEW250
     FM071300 00000KT P6SM FEW250
     FM071800 24006KT P6SM FEW050=

USA.gov is the U.S. government's official web portal to all federal, state and local government web resources and services.